Time;durP1;ratioP1;P1;durP2;ratioP2;P2;SDS_P1;SDS_P2;PMS_P1;PMS_P2;Temp;Humidity;BMP_temperature;BMP_pressure;BME280_temperature;BME280_humidity;BME280_pressure;Samples;Min_cycle;Max_cycle;Signal;HPM_P1;HPM_P2
2021/09/21 00:00:11;;;;;;;7.90;7.20;;;13.50;99.90;;;;;;4896357;29;20653;-96
2021/09/21 00:02:40;;;;;;;7.93;7.33;;;13.60;99.90;;;;;;4878680;29;21308;-94
2021/09/21 00:05:08;;;;;;;8.13;7.53;;;13.60;99.90;;;;;;4879010;29;21177;-96
2021/09/21 00:07:35;;;;;;;8.13;7.53;;;13.60;99.90;;;;;;4874649;29;20653;-95
2021/09/21 00:10:02;;;;;;;6.70;6.20;;;13.50;99.90;;;;;;4882671;29;20678;-96
2021/09/21 00:12:29;;;;;;;7.80;7.20;;;13.60;99.90;;;;;;4879097;29;20681;-95
2021/09/21 00:14:56;;;;;;;7.40;6.80;;;13.60;99.90;;;;;;4876225;29;21193;-96
2021/09/21 00:17:23;;;;;;;7.50;6.93;;;13.70;99.90;;;;;;4885406;29;21291;-96
2021/09/21 00:19:52;;;;;;;7.83;7.23;;;13.70;99.90;;;;;;4880094;29;20642;-96
2021/09/21 00:22:19;;;;;;;7.87;7.27;;;13.70;99.90;;;;;;4875408;29;21071;-95
2021/09/21 00:24:48;;;;;;;8.27;7.57;;;13.80;99.90;;;;;;4882088;29;21233;-96
2021/09/21 00:27:20;;;;;;;8.90;8.23;;;13.80;99.90;;;;;;4887886;29;20654;-96
2021/09/21 00:29:47;;;;;;;9.10;8.30;;;13.80;99.90;;;;;;4893838;29;20725;-96
2021/09/21 00:32:24;;;;;;;8.30;7.70;;;13.80;99.90;;;;;;4890120;29;20776;-96
2021/09/21 00:34:54;;;;;;;7.53;6.77;;;13.80;99.90;;;;;;4883008;29;20645;-96
2021/09/21 00:37:23;;;;;;;8.13;7.53;;;13.90;99.90;;;;;;4886201;29;20725;-96
2021/09/21 00:39:50;;;;;;;7.40;6.87;;;13.90;99.90;;;;;;4884623;29;20649;-95
2021/09/21 00:42:29;;;;;;;8.57;7.90;;;13.90;99.90;;;;;;4885664;29;20677;-96
2021/09/21 00:45:00;;;;;;;8.37;7.70;;;13.90;99.90;;;;;;4880882;29;21171;-96
2021/09/21 00:47:34;;;;;;;9.50;8.70;;;13.80;99.90;;;;;;4881596;29;20662;-96
2021/09/21 00:50:05;;;;;;;8.70;8.00;;;13.80;99.90;;;;;;4884917;29;20650;-95
2021/09/21 00:52:32;;;;;;;8.17;7.40;;;13.80;99.90;;;;;;4890592;29;20668;-96
2021/09/21 00:54:59;;;;;;;7.67;6.93;;;13.80;99.90;;;;;;4899996;29;20614;-96
2021/09/21 00:57:28;;;;;;;8.10;7.50;;;13.70;99.90;;;;;;4914651;29;20639;-96
2021/09/21 00:59:55;;;;;;;8.37;7.67;;;13.60;99.90;;;;;;4912878;29;20626;-95
2021/09/21 01:02:22;;;;;;;8.50;7.77;;;13.50;99.90;;;;;;4904494;29;20768;-96
2021/09/21 01:05:02;;;;;;;7.63;7.03;;;13.50;99.90;;;;;;4906745;29;20642;-96
2021/09/21 01:07:30;;;;;;;8.13;7.53;;;13.50;99.90;;;;;;4882147;29;20685;-96
2021/09/21 01:10:05;;;;;;;8.70;8.00;;;13.60;99.90;;;;;;4882680;29;20677;-96
2021/09/21 01:12:35;;;;;;;9.03;8.23;;;13.60;99.90;;;;;;4887932;29;20664;-96
2021/09/21 01:15:04;;;;;;;8.63;8.10;;;13.60;99.90;;;;;;4883209;29;20634;-96
2021/09/21 01:24:25;;;;;;;8.43;7.67;;;13.60;99.90;;;;;;4933854;23;20678;-96
2021/09/21 01:29:34;;;;;;;8.57;7.80;;;13.60;99.90;;;;;;4869705;29;20683;-95
2021/09/21 01:32:28;;;;;;;8.47;7.87;;;13.70;99.90;;;;;;4872968;29;20737;-96
2021/09/21 01:34:55;;;;;;;8.83;7.13;;;13.70;99.90;;;;;;4882709;29;21070;-96
2021/09/21 01:37:24;;;;;;;8.87;8.00;;;13.60;99.90;;;;;;4862312;29;20640;-96
2021/09/21 01:39:53;;;;;;;8.73;8.03;;;13.70;99.90;;;;;;4874036;29;20639;-96
2021/09/21 01:42:21;;;;;;;9.30;8.50;;;13.80;99.90;;;;;;4877953;29;20643;-95
2021/09/21 01:44:48;;;;;;;8.40;7.80;;;13.80;99.90;;;;;;4901682;29;21570;-96
2021/09/21 01:47:16;;;;;;;8.43;7.53;;;13.70;99.90;;;;;;4887728;29;20655;-96
2021/09/21 01:49:52;;;;;;;8.50;7.63;;;13.60;99.90;;;;;;4896849;29;20658;-94
2021/09/21 01:52:23;;;;;;;8.50;7.80;;;13.60;99.90;;;;;;4895800;29;20641;-94
2021/09/21 01:55:12;;;;;;;8.37;7.87;;;13.60;99.90;;;;;;4883067;29;20615;-92
2021/09/21 02:00:26;;;;;;;7.80;7.20;;;13.40;99.90;;;;;;4882426;29;20650;-96
2021/09/21 02:02:53;;;;;;;9.37;8.67;;;13.40;99.90;;;;;;4884290;29;20674;-94
2021/09/21 02:05:22;;;;;;;7.80;7.20;;;13.40;99.90;;;;;;4876389;29;20656;-96
2021/09/21 02:10:38;;;;;;;8.43;7.73;;;13.40;99.90;;;;;;4874900;29;20654;-95
2021/09/21 02:13:06;;;;;;;8.83;8.10;;;13.40;99.90;;;;;;4870209;29;20756;-95
2021/09/21 02:15:34;;;;;;;8.53;7.50;;;13.40;99.90;;;;;;4876150;29;20650;-95
2021/09/21 02:18:02;;;;;;;7.97;7.37;;;13.40;99.90;;;;;;4867153;29;20635;-95
2021/09/21 02:20:30;;;;;;;8.47;7.77;;;13.40;99.90;;;;;;4870676;29;20649;-95
2021/09/21 02:22:57;;;;;;;9.03;8.23;;;13.40;99.90;;;;;;4874515;29;20669;-95
2021/09/21 02:25:24;;;;;;;8.70;8.10;;;13.40;99.90;;;;;;4869078;29;21210;-95
2021/09/21 02:27:54;;;;;;;7.77;7.10;;;13.40;99.90;;;;;;4873237;29;20762;-95
2021/09/21 02:30:28;;;;;;;7.70;7.20;;;13.30;99.90;;;;;;4852994;29;20649;-95
2021/09/21 02:32:56;;;;;;;7.87;7.20;;;13.20;99.90;;;;;;4854435;29;20673;-95
2021/09/21 02:35:24;;;;;;;8.67;8.07;;;13.30;99.90;;;;;;4864994;29;20742;-95
2021/09/21 02:37:52;;;;;;;8.60;8.00;;;13.30;99.90;;;;;;4859260;29;21258;-95
2021/09/21 02:40:19;;;;;;;9.63;8.87;;;13.30;99.90;;;;;;4857113;29;20643;-94
2021/09/21 02:42:46;;;;;;;8.10;7.50;;;13.30;99.90;;;;;;4860489;29;20735;-94
2021/09/21 02:45:15;;;;;;;9.70;9.00;;;13.30;99.90;;;;;;4862213;29;21700;-95
2021/09/21 02:47:41;;;;;;;8.30;7.70;;;13.30;99.90;;;;;;4869057;29;20669;-95
2021/09/21 02:50:09;;;;;;;8.03;7.40;;;13.30;99.90;;;;;;4866837;29;20744;-93
2021/09/21 02:52:36;;;;;;;8.83;8.13;;;13.30;99.90;;;;;;4866435;29;20677;-94
2021/09/21 02:55:16;;;;;;;8.33;7.73;;;13.30;99.90;;;;;;4865725;29;20765;-95
2021/09/21 02:57:43;;;;;;;9.87;9.07;;;13.30;99.90;;;;;;4865242;29;21019;-94
2021/09/21 03:00:13;;;;;;;8.77;8.17;;;13.40;99.90;;;;;;4863294;29;20682;-95
2021/09/21 03:02:43;;;;;;;7.50;7.00;;;13.40;99.90;;;;;;4871179;29;20785;-95
2021/09/21 03:05:14;;;;;;;8.80;8.10;;;13.50;99.90;;;;;;4860312;29;20651;-94
2021/09/21 03:07:43;;;;;;;8.90;8.27;;;13.40;99.90;;;;;;4865792;29;20670;-95
2021/09/21 03:10:20;;;;;;;9.53;8.83;;;13.50;99.90;;;;;;4863064;29;20747;-95
2021/09/21 03:18:29;;;;;;;8.50;7.70;;;13.40;99.90;;;;;;4850251;29;20678;-95
2021/09/21 03:20:56;;;;;;;8.30;7.60;;;13.30;99.90;;;;;;4863535;29;20648;-96
2021/09/21 03:23:28;;;;;;;9.77;9.03;;;13.20;99.90;;;;;;4862496;29;20758;-95
2021/09/21 03:25:55;;;;;;;8.53;7.93;;;13.20;99.90;;;;;;4863413;29;20661;-95
2021/09/21 03:28:22;;;;;;;8.40;7.77;;;13.20;99.90;;;;;;4861780;29;20647;-96
2021/09/21 03:30:49;;;;;;;9.03;8.23;;;13.20;99.90;;;;;;4859354;29;20737;-96
2021/09/21 03:33:17;;;;;;;9.27;8.57;;;13.20;99.90;;;;;;4865552;29;21245;-96
2021/09/21 03:35:45;;;;;;;9.90;9.13;;;13.10;99.90;;;;;;4859418;29;20643;-94
2021/09/21 03:38:13;;;;;;;10.03;8.73;;;13.20;99.90;;;;;;4866797;29;20645;-93
2021/09/21 03:40:40;;;;;;;10.40;9.50;;;13.20;99.90;;;;;;4871126;29;21229;-93
2021/09/21 03:43:07;;;;;;;10.00;9.20;;;13.20;99.90;;;;;;4867568;29;21217;-95
2021/09/21 03:45:42;;;;;;;9.60;8.63;;;13.20;99.90;;;;;;4856263;29;21270;-94
2021/09/21 03:48:11;;;;;;;10.43;9.63;;;13.10;99.90;;;;;;4855533;29;20734;-96
2021/09/21 03:50:38;;;;;;;10.33;9.53;;;13.20;99.90;;;;;;4860192;29;20987;-96
2021/09/21 03:53:07;;;;;;;10.27;9.27;;;13.20;99.90;;;;;;4863663;29;20757;-96
2021/09/21 03:55:35;;;;;;;9.90;9.17;;;13.20;99.90;;;;;;4859814;29;20655;-96
2021/09/21 03:58:02;;;;;;;9.27;8.57;;;13.30;99.90;;;;;;4866289;29;20883;-96
2021/09/21 04:00:29;;;;;;;10.87;9.97;;;13.30;99.90;;;;;;4860955;29;20985;-96
2021/09/21 04:02:56;;;;;;;10.50;8.97;;;13.30;99.90;;;;;;4863343;29;20750;-96
2021/09/21 04:05:23;;;;;;;10.10;9.40;;;13.40;99.90;;;;;;4866730;29;20758;-94
2021/09/21 04:07:51;;;;;;;10.30;9.50;;;13.30;99.90;;;;;;4865058;29;20768;-94
2021/09/21 04:10:24;;;;;;;10.30;9.33;;;13.20;99.90;;;;;;4868733;29;20654;-93
2021/09/21 04:12:51;;;;;;;9.90;9.10;;;13.30;99.90;;;;;;4864853;29;20754;-94
2021/09/21 04:15:19;;;;;;;10.50;9.43;;;13.30;99.90;;;;;;4875033;29;20737;-95
2021/09/21 04:17:46;;;;;;;10.93;10.13;;;13.30;99.90;;;;;;4873406;29;20667;-95
2021/09/21 04:20:14;;;;;;;8.50;7.70;;;13.30;99.90;;;;;;4853212;29;20654;-94
2021/09/21 04:22:44;;;;;;;10.60;9.80;;;13.30;99.90;;;;;;4862478;29;20665;-94
2021/09/21 04:25:13;;;;;;;9.70;9.03;;;13.30;99.90;;;;;;4868480;29;21011;-94
2021/09/21 04:27:42;;;;;;;9.97;9.17;;;13.20;99.90;;;;;;4864612;29;20675;-94
2021/09/21 04:30:13;;;;;;;9.97;9.27;;;13.10;99.90;;;;;;4865697;29;20657;-93
2021/09/21 04:32:40;;;;;;;10.30;9.50;;;13.00;99.90;;;;;;4862302;29;21035;-94
2021/09/21 04:35:07;;;;;;;8.93;8.23;;;13.00;99.90;;;;;;4860282;29;20738;-94
2021/09/21 04:37:34;;;;;;;9.93;9.20;;;12.80;99.90;;;;;;4862492;29;20738;-94
2021/09/21 04:40:01;;;;;;;10.43;9.43;;;12.80;99.90;;;;;;4866735;29;21316;-93
2021/09/21 04:42:28;;;;;;;9.50;8.70;;;12.80;99.90;;;;;;4863974;29;20685;-94
2021/09/21 04:44:58;;;;;;;9.43;8.73;;;12.70;99.90;;;;;;4870064;29;21173;-94
2021/09/21 04:47:25;;;;;;;10.53;9.73;;;12.80;99.90;;;;;;4874240;29;20674;-94
2021/09/21 04:53:03;;;;;;;10.00;9.13;;;12.80;99.90;;;;;;4881136;29;20671;-94
2021/09/21 04:55:45;;;;;;;9.40;8.70;;;12.80;99.90;;;;;;4892406;29;20713;-93
2021/09/21 04:58:20;;;;;;;8.97;8.37;;;12.80;99.90;;;;;;4884722;29;20701;-95
2021/09/21 05:00:50;;;;;;;9.47;8.67;;;12.90;99.90;;;;;;4885348;29;20672;-95
2021/09/21 05:03:18;;;;;;;10.90;9.90;;;12.80;99.90;;;;;;4882508;29;20666;-95
2021/09/21 05:05:45;;;;;;;10.10;9.07;;;12.70;99.90;;;;;;4884245;29;20634;-94
2021/09/21 05:08:24;;;;;;;10.57;9.87;;;12.70;99.90;;;;;;4875383;29;20719;-96
2021/09/21 05:10:51;;;;;;;10.10;9.40;;;12.60;99.90;;;;;;4870369;29;20729;-95
2021/09/21 05:13:19;;;;;;;9.40;8.77;;;12.70;99.90;;;;;;4866342;29;20658;-95
2021/09/21 05:15:46;;;;;;;9.67;8.87;;;12.80;99.90;;;;;;4874239;29;20660;-95
2021/09/21 05:18:17;;;;;;;8.93;8.23;;;12.90;99.90;;;;;;4873693;29;20750;-94
2021/09/21 05:20:44;;;;;;;9.67;8.93;;;12.90;99.90;;;;;;4873554;29;21254;-91
2021/09/21 05:23:13;;;;;;;9.70;8.77;;;12.90;99.90;;;;;;4860661;29;20690;-94
2021/09/21 05:25:41;;;;;;;9.20;8.37;;;12.90;99.90;;;;;;4866371;29;20682;-94
2021/09/21 05:28:09;;;;;;;9.57;8.70;;;13.00;99.90;;;;;;4877643;29;20785;-93
2021/09/21 05:30:36;;;;;;;10.70;9.67;;;12.90;99.90;;;;;;4876820;29;20876;-95
2021/09/21 05:33:04;;;;;;;8.27;7.67;;;12.90;99.90;;;;;;4875319;29;20676;-94
2021/09/21 05:35:32;;;;;;;9.53;8.93;;;12.90;99.90;;;;;;4865691;29;20688;-94
2021/09/21 05:37:59;;;;;;;9.40;8.60;;;12.80;99.90;;;;;;4865915;29;20982;-95
2021/09/21 05:40:28;;;;;;;9.87;9.17;;;12.80;99.90;;;;;;4860622;29;20652;-94
2021/09/21 05:43:04;;;;;;;9.80;9.03;;;12.90;99.90;;;;;;4866520;29;20677;-94
2021/09/21 05:45:38;;;;;;;9.80;9.00;;;12.80;99.90;;;;;;4870156;29;20639;-93
2021/09/21 05:48:06;;;;;;;9.50;8.90;;;12.90;99.90;;;;;;4867225;29;21206;-94
2021/09/21 05:50:35;;;;;;;9.50;8.90;;;12.90;99.90;;;;;;4862216;29;21190;-93
2021/09/21 05:53:02;;;;;;;10.10;9.30;;;13.00;99.90;;;;;;4866122;29;20762;-93
2021/09/21 05:55:29;;;;;;;9.97;9.17;;;13.00;99.90;;;;;;4870963;29;20738;-92
2021/09/21 05:57:57;;;;;;;9.30;8.60;;;13.00;99.90;;;;;;4864264;29;20721;-93
2021/09/21 06:00:24;;;;;;;10.43;9.73;;;13.00;99.90;;;;;;4870662;29;20674;-92
2021/09/21 06:02:51;;;;;;;10.20;9.40;;;13.00;99.90;;;;;;4860130;29;21250;-91
2021/09/21 06:05:22;;;;;;;10.20;9.20;;;13.00;99.90;;;;;;4869650;29;20730;-94
2021/09/21 06:07:54;;;;;;;10.50;9.70;;;13.00;99.90;;;;;;4854246;29;20670;-94
2021/09/21 06:10:24;;;;;;;10.13;9.30;;;13.10;99.90;;;;;;4860445;29;21072;-91
2021/09/21 06:12:51;;;;;;;9.50;8.60;;;13.20;99.90;;;;;;4873265;29;20658;-91
2021/09/21 06:15:30;;;;;;;10.00;9.20;;;13.20;99.90;;;;;;4865738;29;20689;-90
2021/09/21 06:17:57;;;;;;;9.77;9.07;;;13.30;99.90;;;;;;4867219;29;20648;-90
2021/09/21 06:20:25;;;;;;;9.50;8.70;;;13.30;99.90;;;;;;4865435;29;20625;-91
2021/09/21 06:22:54;;;;;;;10.17;9.27;;;13.20;99.90;;;;;;4866616;29;20709;-90
2021/09/21 06:25:21;;;;;;;9.17;8.37;;;13.20;99.90;;;;;;4867050;29;20753;-90
2021/09/21 06:27:48;;;;;;;9.47;8.77;;;13.20;99.90;;;;;;4864818;29;21237;-91
2021/09/21 06:30:16;;;;;;;9.50;8.80;;;13.20;99.90;;;;;;4863330;29;20631;-91
2021/09/21 06:32:45;;;;;;;9.23;8.47;;;13.10;99.90;;;;;;4864712;29;20639;-90
2021/09/21 06:35:12;;;;;;;9.67;8.87;;;13.10;99.90;;;;;;4866115;29;20645;-90
2021/09/21 06:37:39;;;;;;;9.60;8.47;;;13.20;99.90;;;;;;4858184;29;21233;-88
2021/09/21 06:40:09;;;;;;;9.97;9.17;;;13.20;99.90;;;;;;4858319;29;20637;-88
2021/09/21 06:42:37;;;;;;;8.50;7.90;;;13.30;99.90;;;;;;4857644;29;21023;-89
2021/09/21 06:45:04;;;;;;;9.87;9.10;;;13.40;99.90;;;;;;4860522;29;20639;-89
2021/09/21 06:47:32;;;;;;;8.80;8.10;;;13.40;99.90;;;;;;4865718;29;20675;-89
2021/09/21 06:49:59;;;;;;;10.40;8.77;;;13.50;99.90;;;;;;4864276;29;20638;-89
2021/09/21 06:52:26;;;;;;;9.27;8.40;;;13.60;99.90;;;;;;4861980;29;20684;-89
2021/09/21 06:54:53;;;;;;;8.70;7.90;;;13.70;99.90;;;;;;4864783;29;20620;-88
2021/09/21 06:57:21;;;;;;;8.17;7.57;;;13.70;99.90;;;;;;4862938;29;20630;-88
2021/09/21 06:59:48;;;;;;;8.10;6.47;;;13.90;99.90;;;;;;4860103;29;20747;-89
2021/09/21 07:02:17;;;;;;;7.93;7.23;;;14.20;99.90;;;;;;4855156;29;20738;-89
2021/09/21 07:04:45;;;;;;;7.40;6.80;;;14.10;99.90;;;;;;4865780;29;20636;-90
2021/09/21 07:07:12;;;;;;;8.30;7.50;;;14.20;99.90;;;;;;4860917;29;20730;-90
2021/09/21 07:09:39;;;;;;;9.33;8.73;;;14.10;99.90;;;;;;4859628;29;20715;-90
2021/09/21 07:12:06;;;;;;;9.07;8.30;;;13.90;99.90;;;;;;4865160;29;21175;-90
2021/09/21 07:14:46;;;;;;;9.67;8.97;;;13.80;99.90;;;;;;4870031;29;20721;-89
2021/09/21 07:17:15;;;;;;;8.10;7.50;;;13.90;99.90;;;;;;4880215;29;21061;-88
2021/09/21 07:20:09;;;;;;;9.10;8.30;;;14.10;99.90;;;;;;4888440;29;20642;-88
2021/09/21 07:22:40;;;;;;;8.00;7.40;;;13.90;99.90;;;;;;4879493;29;20708;-88
2021/09/21 07:25:10;;;;;;;9.40;8.60;;;13.80;99.90;;;;;;4879389;29;20658;-89
2021/09/21 07:27:37;;;;;;;8.93;8.33;;;13.80;99.90;;;;;;4862890;29;20677;-89
2021/09/21 07:30:07;;;;;;;8.90;8.10;;;13.80;99.90;;;;;;4871216;29;20694;-88
2021/09/21 07:32:34;;;;;;;9.83;9.00;;;13.70;99.90;;;;;;4865118;29;20658;-89
2021/09/21 07:35:00;;;;;;;10.80;8.90;;;13.70;99.90;;;;;;4863616;29;20635;-89
2021/09/21 07:37:27;;;;;;;10.60;9.50;;;14.00;99.90;;;;;;4870063;29;20642;-89
2021/09/21 07:39:55;;;;;;;10.17;9.27;;;14.20;99.90;;;;;;4859465;29;21259;-88
2021/09/21 07:42:22;;;;;;;10.63;9.83;;;14.30;99.90;;;;;;4867230;29;20673;-89
2021/09/21 07:44:49;;;;;;;9.53;8.83;;;14.20;99.90;;;;;;4871788;29;20734;-88
2021/09/21 07:47:23;;;;;;;9.93;9.20;;;14.50;99.90;;;;;;4853671;29;20645;-88
2021/09/21 07:49:50;;;;;;;8.60;7.77;;;14.70;99.90;;;;;;4851916;29;20631;-88
2021/09/21 07:52:23;;;;;;;9.30;8.40;;;15.10;99.90;;;;;;4865079;29;20614;-89
2021/09/21 07:54:50;;;;;;;9.17;8.50;;;15.30;99.90;;;;;;4858344;29;20638;-89
2021/09/21 07:57:17;;;;;;;9.30;8.70;;;15.30;99.90;;;;;;4859979;29;20752;-89
2021/09/21 07:59:44;;;;;;;10.40;8.83;;;15.20;99.90;;;;;;4868209;29;20662;-89
2021/09/21 08:02:12;;;;;;;9.37;8.67;;;15.20;99.90;;;;;;4860749;29;20624;-89
2021/09/21 08:04:42;;;;;;;10.13;9.13;;;15.30;99.90;;;;;;4858977;29;20647;-89
2021/09/21 08:07:09;;;;;;;9.33;8.53;;;15.00;99.90;;;;;;4850812;29;21003;-89
2021/09/21 08:09:37;;;;;;;8.23;7.63;;;15.20;99.90;;;;;;4851758;29;20678;-89
2021/09/21 08:12:04;;;;;;;9.23;8.60;;;15.10;99.90;;;;;;4862191;29;20974;-89
2021/09/21 08:14:36;;;;;;;8.83;8.03;;;15.00;99.90;;;;;;4861756;29;20633;-89
2021/09/21 08:17:04;;;;;;;8.13;7.43;;;15.30;99.90;;;;;;4859113;29;20635;-90
2021/09/21 08:19:31;;;;;;;7.30;6.80;;;15.40;99.90;;;;;;4853732;29;20655;-89
2021/09/21 08:21:59;;;;;;;7.70;7.10;;;15.80;99.90;;;;;;4856533;29;20635;-88
2021/09/21 08:24:26;;;;;;;7.40;6.70;;;15.60;99.90;;;;;;4854040;29;20970;-89
2021/09/21 08:26:53;;;;;;;8.37;7.67;;;15.70;99.90;;;;;;4853908;29;20650;-89
2021/09/21 08:29:19;;;;;;;7.10;6.50;;;15.40;99.90;;;;;;4871946;29;20778;-89
2021/09/21 08:31:46;;;;;;;7.30;6.80;;;15.60;99.90;;;;;;4867619;29;20636;-89
2021/09/21 08:34:13;;;;;;;6.90;6.30;;;15.70;99.90;;;;;;4879464;29;20705;-89
2021/09/21 08:36:40;;;;;;;7.20;6.70;;;16.10;99.90;;;;;;4866668;29;20668;-89
2021/09/21 08:39:08;;;;;;;6.97;6.47;;;16.40;99.90;;;;;;4878484;29;20658;-89
2021/09/21 08:41:36;;;;;;;7.20;6.60;;;16.40;99.90;;;;;;4879559;29;20633;-89
2021/09/21 08:44:03;;;;;;;7.80;7.20;;;16.50;99.90;;;;;;4878384;29;20654;-90
2021/09/21 08:46:31;;;;;;;7.43;6.77;;;16.40;99.90;;;;;;4875701;29;20630;-88
2021/09/21 08:48:58;;;;;;;6.73;6.13;;;16.20;99.90;;;;;;4870852;29;20731;-89
2021/09/21 08:51:24;;;;;;;7.40;6.80;;;16.30;99.90;;;;;;4864021;29;21181;-89
2021/09/21 08:53:51;;;;;;;7.00;6.40;;;16.30;99.90;;;;;;4859296;29;20946;-89
2021/09/21 08:56:20;;;;;;;5.73;5.30;;;16.40;99.90;;;;;;4869839;29;20706;-89
2021/09/21 08:58:56;;;;;;;7.50;6.90;;;16.80;99.90;;;;;;4864378;29;20715;-89
2021/09/21 09:01:23;;;;;;;6.53;6.03;;;16.90;99.90;;;;;;4857248;29;20654;-90
2021/09/21 09:03:55;;;;;;;6.57;6.17;;;16.70;99.90;;;;;;4863879;29;20642;-90
2021/09/21 09:06:22;;;;;;;6.83;5.67;;;16.60;99.90;;;;;;4863483;29;21087;-89
2021/09/21 09:08:49;;;;;;;6.20;5.70;;;17.00;99.90;;;;;;4861162;29;20688;-89
2021/09/21 09:11:20;;;;;;;6.07;5.67;;;17.30;99.90;;;;;;4871501;29;20744;-89
2021/09/21 09:13:51;;;;;;;6.40;5.93;;;17.30;99.30;;;;;;4859391;29;20719;-89
2021/09/21 09:16:20;;;;;;;7.17;5.80;;;17.20;99.90;;;;;;4864838;29;20729;-89
2021/09/21 09:18:49;;;;;;;6.20;5.80;;;17.40;99.90;;;;;;4861573;29;21074;-88
2021/09/21 09:21:18;;;;;;;6.30;5.90;;;17.30;99.90;;;;;;4859836;29;20682;-88
2021/09/21 09:23:49;;;;;;;6.43;5.80;;;17.30;99.90;;;;;;4854107;29;20665;-88
2021/09/21 09:26:20;;;;;;;6.30;5.80;;;17.50;99.90;;;;;;4868047;29;20668;-89
2021/09/21 09:28:47;;;;;;;6.23;5.63;;;17.40;99.90;;;;;;4859342;29;21299;-88
2021/09/21 09:31:24;;;;;;;6.70;6.20;;;17.60;98.80;;;;;;4860967;29;20638;-88
2021/09/21 09:33:51;;;;;;;5.43;5.00;;;17.70;97.50;;;;;;4854530;29;20999;-88
2021/09/21 09:36:21;;;;;;;4.90;4.60;;;17.80;96.90;;;;;;4846055;29;20630;-88
2021/09/21 09:38:48;;;;;;;6.00;5.50;;;18.10;98.10;;;;;;4861579;29;20655;-88
2021/09/21 09:41:16;;;;;;;6.27;5.77;;;18.70;96.00;;;;;;4859449;29;20642;-89
2021/09/21 09:43:45;;;;;;;5.50;5.00;;;18.50;96.30;;;;;;4856933;29;20698;-89
2021/09/21 09:46:18;;;;;;;6.70;5.07;;;18.60;93.90;;;;;;4861198;29;20696;-89
2021/09/21 09:48:45;;;;;;;5.50;5.10;;;18.30;94.10;;;;;;4863473;29;20682;-87
2021/09/21 09:51:12;;;;;;;4.70;4.30;;;18.50;92.90;;;;;;4863901;29;20647;-89
2021/09/21 09:53:43;;;;;;;4.60;4.20;;;18.90;93.50;;;;;;4855898;29;20639;-89
2021/09/21 09:56:10;;;;;;;4.93;4.53;;;19.40;92.00;;;;;;4862288;29;20646;-90
2021/09/21 09:58:37;;;;;;;5.77;5.27;;;19.20;90.90;;;;;;4861951;29;20668;-89
2021/09/21 10:01:05;;;;;;;5.00;4.60;;;19.20;92.00;;;;;;4861654;29;20643;-89
2021/09/21 10:03:32;;;;;;;6.00;5.40;;;18.60;91.90;;;;;;4875589;29;20889;-90
2021/09/21 10:05:59;;;;;;;7.83;7.03;;;19.10;93.20;;;;;;4859631;29;20650;-90
2021/09/21 10:08:26;;;;;;;5.60;5.20;;;19.50;92.50;;;;;;4876446;29;20685;-89
2021/09/21 10:10:54;;;;;;;5.13;4.63;;;19.50;91.00;;;;;;4863391;29;20714;-89
2021/09/21 10:13:21;;;;;;;5.47;4.97;;;19.50;90.70;;;;;;4870584;29;20983;-89
2021/09/21 10:15:51;;;;;;;5.87;5.37;;;19.50;92.20;;;;;;4860217;29;20637;-89
2021/09/21 10:18:21;;;;;;;5.40;5.00;;;19.20;91.50;;;;;;4876378;29;21008;-88
2021/09/21 10:20:58;;;;;;;5.27;4.87;;;19.90;91.00;;;;;;4871209;29;20649;-89
2021/09/21 10:23:32;;;;;;;5.60;5.10;;;19.30;89.70;;;;;;4865261;29;20633;-90
2021/09/21 10:26:12;;;;;;;5.87;5.40;;;19.50;90.50;;;;;;4864363;29;20642;-89
2021/09/21 10:28:40;;;;;;;5.87;5.43;;;19.50;90.40;;;;;;4862919;29;20681;-90
2021/09/21 10:31:13;;;;;;;5.97;5.47;;;19.70;88.20;;;;;;4861992;29;20643;-89
2021/09/21 10:33:44;;;;;;;6.17;5.77;;;19.00;91.40;;;;;;4868704;29;20649;-89
2021/09/21 10:36:20;;;;;;;6.30;5.80;;;19.60;91.10;;;;;;4856857;29;21044;-88
2021/09/21 10:38:57;;;;;;;5.70;5.20;;;20.00;90.60;;;;;;4855407;29;20663;-89
2021/09/21 10:41:24;;;;;;;6.13;5.63;;;19.10;89.80;;;;;;4849581;29;20634;-89
2021/09/21 10:44:07;;;;;;;5.93;5.23;;;18.80;90.00;;;;;;4860584;29;20649;-89
2021/09/21 10:46:52;;;;;;;5.80;5.40;;;19.40;91.00;;;;;;4854746;29;20700;-91
2021/09/21 10:49:26;;;;;;;6.00;5.40;;;20.30;90.00;;;;;;4847952;29;20786;-89
2021/09/21 10:51:58;;;;;;;5.60;5.10;;;20.50;89.40;;;;;;4855324;29;20651;-90
2021/09/21 10:54:46;;;;;;;6.90;6.30;;;20.00;83.40;;;;;;4855518;29;20636;-90
2021/09/21 10:57:15;;;;;;;6.30;5.80;;;19.60;85.70;;;;;;4861060;29;20630;-90
2021/09/21 10:59:53;;;;;;;5.57;5.07;;;20.20;85.80;;;;;;4860237;29;20712;-87
2021/09/21 11:02:28;;;;;;;6.90;6.40;;;20.40;87.80;;;;;;4850806;29;20630;-90
2021/09/21 11:04:59;;;;;;;6.63;6.00;;;21.20;85.60;;;;;;4857371;29;21109;-89
2021/09/21 11:07:26;;;;;;;7.40;6.90;;;21.10;83.20;;;;;;4861751;29;20657;-88
2021/09/21 11:09:56;;;;;;;7.23;6.73;;;21.20;82.90;;;;;;4860721;29;21366;-89
2021/09/21 11:12:25;;;;;;;6.60;6.03;;;21.60;84.80;;;;;;4857551;29;20990;-88
2021/09/21 11:14:55;;;;;;;6.23;5.80;;;21.70;82.30;;;;;;4849733;29;21062;-88
2021/09/21 11:17:27;;;;;;;6.67;6.17;;;21.90;80.90;;;;;;4853076;29;21028;-88
2021/09/21 11:19:57;;;;;;;6.43;5.90;;;22.10;80.90;;;;;;4853815;29;20655;-88
2021/09/21 11:22:29;;;;;;;6.23;5.73;;;21.70;83.70;;;;;;4859600;29;20642;-88
2021/09/21 11:25:01;;;;;;;6.50;6.00;;;20.90;86.10;;;;;;4852637;29;20716;-88
2021/09/21 11:27:31;;;;;;;5.77;5.37;;;20.20;84.40;;;;;;4858079;29;20727;-88
2021/09/21 11:30:05;;;;;;;7.47;6.77;;;19.70;90.30;;;;;;4858527;29;20687;-88
2021/09/21 11:32:31;;;;;;;6.10;5.60;;;20.00;89.70;;;;;;4857868;29;21021;-88
2021/09/21 11:35:02;;;;;;;6.70;6.20;;;20.00;88.30;;;;;;4859495;29;20671;-88
2021/09/21 11:37:32;;;;;;;6.47;5.97;;;19.80;89.30;;;;;;4856185;29;20648;-89
2021/09/21 11:40:00;;;;;;;5.80;5.40;;;19.80;90.10;;;;;;4855569;29;21120;-88
2021/09/21 11:42:29;;;;;;;6.73;6.23;;;19.80;90.60;;;;;;4854416;29;20634;-89
2021/09/21 11:45:05;;;;;;;7.63;5.77;;;20.20;88.10;;;;;;4859955;29;20695;-88
2021/09/21 11:47:37;;;;;;;6.20;5.70;;;20.40;85.70;;;;;;4864069;29;20636;-89
2021/09/21 11:50:15;;;;;;;6.37;5.90;;;20.90;87.60;;;;;;4855915;29;21057;-88
2021/09/21 11:52:46;;;;;;;5.90;5.30;;;20.60;86.70;;;;;;4856387;29;20639;-89
2021/09/21 11:55:14;;;;;;;5.80;5.40;;;21.30;82.50;;;;;;4858780;29;20618;-89
2021/09/21 11:57:41;;;;;;;5.90;5.43;;;22.00;79.70;;;;;;4846518;29;20669;-88
2021/09/21 12:00:20;;;;;;;5.07;4.73;;;21.50;80.80;;;;;;4862091;29;20658;-89
2021/09/21 12:02:47;;;;;;;5.87;5.37;;;21.40;82.20;;;;;;4846083;29;20639;-88
2021/09/21 12:05:15;;;;;;;5.13;4.73;;;21.30;83.40;;;;;;4858706;29;20663;-89
2021/09/21 12:07:45;;;;;;;6.10;5.70;;;20.40;83.90;;;;;;4859540;29;20764;-88
2021/09/21 12:10:13;;;;;;;5.83;5.43;;;20.70;83.50;;;;;;4862326;29;20681;-89
2021/09/21 12:12:42;;;;;;;7.43;6.83;;;21.10;83.90;;;;;;4864109;29;20631;-88
2021/09/21 12:15:11;;;;;;;6.73;6.23;;;21.90;79.20;;;;;;4852487;29;20664;-88
2021/09/21 12:17:41;;;;;;;6.00;5.67;;;21.80;78.00;;;;;;4854542;29;20642;-89
2021/09/21 12:20:10;;;;;;;6.53;5.93;;;22.00;80.20;;;;;;4856523;29;20787;-89
2021/09/21 12:22:39;;;;;;;6.13;5.13;;;22.80;79.00;;;;;;4858413;29;20634;-88
2021/09/21 12:25:07;;;;;;;5.80;5.37;;;23.20;79.00;;;;;;4852639;29;20644;-88
2021/09/21 12:27:38;;;;;;;6.53;5.83;;;23.20;76.60;;;;;;4856045;29;20638;-88
2021/09/21 12:30:07;;;;;;;6.00;5.50;;;22.50;76.40;;;;;;4847755;29;20692;-89
2021/09/21 12:32:34;;;;;;;6.30;5.80;;;22.10;77.60;;;;;;4852234;29;20637;-89
2021/09/21 12:35:07;;;;;;;5.97;5.50;;;23.10;75.60;;;;;;4854320;29;20620;-89
2021/09/21 12:37:41;;;;;;;7.00;6.47;;;23.50;74.60;;;;;;4849933;29;21004;-89
2021/09/21 12:40:13;;;;;;;6.33;5.83;;;22.90;72.70;;;;;;4852085;29;20675;-88
2021/09/21 12:42:41;;;;;;;6.23;5.73;;;22.20;75.00;;;;;;4853019;29;20695;-88
2021/09/21 12:45:10;;;;;;;6.80;6.20;;;22.40;74.80;;;;;;4857063;29;20645;-87
2021/09/21 12:47:38;;;;;;;5.97;5.40;;;23.20;72.70;;;;;;4852418;29;20649;-87
2021/09/21 12:50:14;;;;;;;6.77;6.23;;;23.60;74.90;;;;;;4859823;29;20671;-87
2021/09/21 12:52:52;;;;;;;7.77;5.87;;;22.80;75.90;;;;;;4860550;29;20736;-89
2021/09/21 12:55:30;;;;;;;6.10;5.60;;;22.60;74.00;;;;;;4857420;29;20621;-89
2021/09/21 12:57:58;;;;;;;6.00;5.60;;;22.40;77.00;;;;;;4845838;29;21247;-88
2021/09/21 13:00:32;;;;;;;5.47;5.07;;;22.40;74.70;;;;;;4852610;29;20649;-88
2021/09/21 13:02:59;;;;;;;5.87;5.43;;;22.70;76.40;;;;;;4855191;29;20655;-89
2021/09/21 13:05:26;;;;;;;7.07;6.57;;;22.20;76.50;;;;;;4860533;29;20674;-88
2021/09/21 13:07:54;;;;;;;6.97;6.50;;;22.00;77.70;;;;;;4851830;29;20643;-88
2021/09/21 13:10:21;;;;;;;6.97;6.47;;;21.90;77.70;;;;;;4856283;29;20673;-88
2021/09/21 13:12:55;;;;;;;6.07;5.57;;;21.30;79.50;;;;;;4854322;29;20729;-88
2021/09/21 13:15:24;;;;;;;6.10;5.60;;;20.60;80.90;;;;;;4846735;29;21232;-89
2021/09/21 13:17:51;;;;;;;6.40;5.90;;;20.80;82.40;;;;;;4855055;29;20637;-88
2021/09/21 13:20:18;;;;;;;6.73;6.13;;;20.60;81.90;;;;;;4857064;29;20638;-88